Time;durP1;ratioP1;P1;durP2;ratioP2;P2;SDS_P1;SDS_P2;PMS_P1;PMS_P2;Temp;Humidity;BMP_temperature;BMP_pressure;BME280_temperature;BME280_humidity;BME280_pressure;Samples;Min_cycle;Max_cycle;Signal;HPM_P1;HPM_P2
2021/01/19 00:04:15;;;;;;;50.33;25.55;;;;;;;;;;4943793;29;20118;-93
2021/01/19 00:06:41;;;;;;;52.90;27.65;;;;;;;;;;4943326;29;20530;-92
2021/01/19 00:09:07;;;;;;;51.95;27.60;;;;;;;;;;4942953;29;20067;-92
2021/01/19 00:11:33;;;;;;;49.53;26.95;;;;;;;;;;4942849;29;20028;-93
2021/01/19 00:13:59;;;;;;;53.05;25.73;;;;;;;;;;4926304;29;20028;-94
2021/01/19 00:16:25;;;;;;;50.67;26.13;;;;;;;;;;4925934;29;20056;-93
2021/01/19 00:18:51;;;;;;;55.70;28.15;;;;;;;;;;4926229;29;20054;-94
2021/01/19 00:21:18;;;;;;;53.33;28.17;;;;;;;;;;4943160;29;20050;-94
2021/01/19 00:23:44;;;;;;;48.80;26.83;;;;;;;;;;4926060;29;20387;-94
2021/01/19 00:26:10;;;;;;;51.17;25.88;;;;;;;;;;4942718;29;20450;-94
2021/01/19 00:28:36;;;;;;;50.53;26.08;;;;;;;;;;4942730;29;20020;-94
2021/01/19 00:31:02;;;;;;;43.38;24.88;;;;;;;;;;4943006;29;20054;-93
2021/01/19 00:33:28;;;;;;;45.53;24.83;;;;;;;;;;4942373;29;20114;-93
2021/01/19 00:35:54;;;;;;;47.55;24.80;;;;;;;;;;4942528;29;20426;-93
2021/01/19 00:38:20;;;;;;;42.92;24.23;;;;;;;;;;4943079;29;20024;-93
2021/01/19 00:40:46;;;;;;;44.92;24.92;;;;;;;;;;4943060;29;20027;-94
2021/01/19 00:43:12;;;;;;;45.15;24.05;;;;;;;;;;4928593;29;20041;-95
2021/01/19 00:45:38;;;;;;;49.25;25.42;;;;;;;;;;4943304;29;20415;-95
2021/01/19 00:48:05;;;;;;;44.20;24.60;;;;;;;;;;4943134;29;20027;-96
2021/01/19 00:50:31;;;;;;;53.47;25.42;;;;;;;;;;4943039;29;20024;-94
2021/01/19 00:52:57;;;;;;;51.80;26.73;;;;;;;;;;4928202;29;20331;-95
2021/01/19 00:55:23;;;;;;;47.70;25.88;;;;;;;;;;4915297;29;20463;-93
2021/01/19 00:57:49;;;;;;;52.20;27.27;;;;;;;;;;4925438;29;20027;-92
2021/01/19 01:00:16;;;;;;;52.95;27.40;;;;;;;;;;4942178;29;20059;-93
2021/01/19 01:02:42;;;;;;;55.92;28.73;;;;;;;;;;4942374;29;20846;-92
2021/01/19 01:05:09;;;;;;;53.60;27.52;;;;;;;;;;4942156;29;20036;-92
2021/01/19 01:07:39;;;;;;;55.40;28.35;;;;;;;;;;4941910;29;20418;-91
2021/01/19 01:10:09;;;;;;;47.90;24.90;;;;;;;;;;4942257;29;20032;-93
2021/01/19 01:12:35;;;;;;;57.30;27.83;;;;;;;;;;4941777;29;20499;-94
2021/01/19 01:18:11;;;;;;;47.08;25.42;;;;;;;;;;4941895;29;20183;-94
2021/01/19 01:20:37;;;;;;;49.80;24.38;;;;;;;;;;4925058;29;20019;-94
2021/01/19 01:23:03;;;;;;;46.33;25.08;;;;;;;;;;4941971;29;20040;-92
2021/01/19 01:25:29;;;;;;;51.38;24.63;;;;;;;;;;4924985;29;20067;-93
2021/01/19 01:27:55;;;;;;;41.70;23.40;;;;;;;;;;4942068;29;20050;-91
2021/01/19 01:30:58;;;;;;;43.45;23.08;;;;;;;;;;4941373;29;20044;-95
2021/01/19 01:33:44;;;;;;;46.03;23.48;;;;;;;;;;4940261;29;20055;-94
2021/01/19 01:36:10;;;;;;;41.50;22.08;;;;;;;;;;4941835;29;20043;-93
2021/01/19 01:38:36;;;;;;;46.88;25.23;;;;;;;;;;4941773;29;20044;-92
2021/01/19 01:41:03;;;;;;;43.38;21.90;;;;;;;;;;4924264;29;20047;-92
2021/01/19 01:43:29;;;;;;;41.53;20.67;;;;;;;;;;4942081;29;20026;-94
2021/01/19 01:46:15;;;;;;;44.22;21.80;;;;;;;;;;4941188;29;20027;-94
2021/01/19 01:48:42;;;;;;;42.38;21.63;;;;;;;;;;4924716;29;20031;-94
2021/01/19 01:51:10;;;;;;;44.65;22.60;;;;;;;;;;4924954;29;20019;-94
2021/01/19 01:53:39;;;;;;;41.15;21.80;;;;;;;;;;4941200;29;20461;-95
2021/01/19 01:56:06;;;;;;;44.95;22.10;;;;;;;;;;4941839;29;20027;-95
2021/01/19 01:58:32;;;;;;;44.78;22.73;;;;;;;;;;4926796;29;20126;-94
2021/01/19 02:07:26;;;;;;;49.30;24.35;;;;;;;;;;4942491;29;20059;-93
2021/01/19 02:10:13;;;;;;;51.35;25.70;;;;;;;;;;4946564;29;20031;-94
2021/01/19 02:12:53;;;;;;;51.72;25.13;;;;;;;;;;4883341;29;20103;-96
2021/01/19 02:18:23;;;;;;;49.83;23.85;;;;;;;;;;4883365;29;20340;-95
2021/01/19 02:20:49;;;;;;;46.30;23.50;;;;;;;;;;4883195;29;20029;-95
2021/01/19 02:23:15;;;;;;;45.47;23.77;;;;;;;;;;4883399;29;20187;-95
2021/01/19 02:26:11;;;;;;;45.60;22.77;;;;;;;;;;4884025;29;20049;-95
2021/01/19 02:28:37;;;;;;;41.28;22.73;;;;;;;;;;4845622;29;20061;-95
2021/01/19 02:34:12;;;;;;;40.63;23.02;;;;;;;;;;4845899;29;20114;-93
2021/01/19 02:36:44;;;;;;;44.60;23.73;;;;;;;;;;4845551;29;20045;-86
2021/01/19 02:39:13;;;;;;;47.22;24.67;;;;;;;;;;4846042;29;20057;-94
2021/01/19 02:41:41;;;;;;;48.30;25.85;;;;;;;;;;4846667;29;20417;-94
2021/01/19 02:44:10;;;;;;;44.10;23.35;;;;;;;;;;4846558;29;20069;-95
2021/01/19 02:46:36;;;;;;;43.78;24.40;;;;;;;;;;4845088;29;20381;-95
2021/01/19 02:49:02;;;;;;;43.40;22.85;;;;;;;;;;4857389;29;20037;-93
2021/01/19 02:51:28;;;;;;;42.63;22.52;;;;;;;;;;4901214;29;20048;-94
2021/01/19 02:53:54;;;;;;;40.78;22.35;;;;;;;;;;4901442;29;20424;-95
2021/01/19 02:56:27;;;;;;;45.85;22.55;;;;;;;;;;4900963;29;20039;-93
2021/01/19 02:59:01;;;;;;;43.00;23.40;;;;;;;;;;4869884;29;20041;-93
2021/01/19 03:04:49;;;;;;;;;;;;;;;;;;4913697;29;20027;-94
2021/01/19 03:07:16;;;;;;;37.55;20.70;;;;;;;;;;4940853;29;19946;-95
2021/01/19 03:09:43;;;;;;;38.80;21.40;;;;;;;;;;4923721;29;20122;-93
2021/01/19 03:12:12;;;;;;;37.17;20.23;;;;;;;;;;4924600;29;20130;-94
2021/01/19 03:14:39;;;;;;;37.83;20.40;;;;;;;;;;4951100;29;20035;-95
2021/01/19 03:17:06;;;;;;;37.72;19.63;;;;;;;;;;4948383;29;20347;-94
2021/01/19 03:19:35;;;;;;;38.05;19.83;;;;;;;;;;4927751;29;20315;-94
2021/01/19 03:22:01;;;;;;;40.42;22.10;;;;;;;;;;4947683;29;20028;-94
2021/01/19 03:24:28;;;;;;;38.72;20.55;;;;;;;;;;4944823;29;20031;-95
2021/01/19 03:26:54;;;;;;;38.28;19.90;;;;;;;;;;4944791;29;20031;-93
2021/01/19 03:29:20;;;;;;;37.25;19.90;;;;;;;;;;4928923;29;20043;-93
2021/01/19 03:34:50;;;;;;;34.47;18.83;;;;;;;;;;4925844;29;20055;-92
2021/01/19 03:37:16;;;;;;;33.20;18.48;;;;;;;;;;4906147;29;20024;-94
2021/01/19 03:39:42;;;;;;;34.58;19.10;;;;;;;;;;4905531;29;20116;-95
2021/01/19 03:42:08;;;;;;;33.28;18.75;;;;;;;;;;4905862;29;20028;-94
2021/01/19 03:44:34;;;;;;;33.83;19.42;;;;;;;;;;4905673;29;20028;-93
2021/01/19 03:47:38;;;;;;;43.13;22.35;;;;;;;;;;4905783;29;20161;-91
2021/01/19 03:50:05;;;;;;;51.25;25.23;;;;;;;;;;4905517;29;20119;-92
2021/01/19 03:52:31;;;;;;;49.47;26.52;;;;;;;;;;4905626;29;20071;-92
2021/01/19 03:54:57;;;;;;;44.70;24.45;;;;;;;;;;4906049;29;20028;-91
2021/01/19 03:57:23;;;;;;;46.00;25.55;;;;;;;;;;4905609;29;20147;-91
2021/01/19 03:59:49;;;;;;;44.33;23.88;;;;;;;;;;4904255;29;20032;-92
2021/01/19 04:05:18;;;;;;;48.50;25.73;;;;;;;;;;4927970;23;20120;-94
2021/01/19 04:18:08;;;;;;;49.90;26.83;;;;;;;;;;5481960;23;20083;-91
2021/01/19 04:20:34;;;;;;;51.45;28.38;;;;;;;;;;4962390;29;20023;-92
2021/01/19 04:23:00;;;;;;;55.88;28.17;;;;;;;;;;4962199;28;20306;-92
2021/01/19 04:25:26;;;;;;;55.08;26.00;;;;;;;;;;4961891;29;20054;-92
2021/01/19 04:27:52;;;;;;;40.97;21.88;;;;;;;;;;4962111;29;20027;-92
2021/01/19 04:30:18;;;;;;;45.00;23.23;;;;;;;;;;4962101;29;20027;-91
2021/01/19 04:33:03;;;;;;;50.53;24.67;;;;;;;;;;4961699;29;20318;-91
2021/01/19 04:35:29;;;;;;;47.15;25.10;;;;;;;;;;4944920;29;20023;-93
2021/01/19 04:37:55;;;;;;;52.20;26.13;;;;;;;;;;4961741;29;20441;-93
2021/01/19 04:40:21;;;;;;;44.47;24.15;;;;;;;;;;4944910;29;20031;-93
2021/01/19 04:42:47;;;;;;;46.30;25.63;;;;;;;;;;4962014;29;20035;-93
2021/01/19 04:45:13;;;;;;;47.88;25.92;;;;;;;;;;4944799;29;20030;-93
2021/01/19 04:47:39;;;;;;;43.80;23.80;;;;;;;;;;4961549;29;20058;-93
2021/01/19 04:50:08;;;;;;;49.42;27.40;;;;;;;;;;4961681;29;20046;-91
2021/01/19 04:52:35;;;;;;;47.22;25.23;;;;;;;;;;4950654;29;20310;-95
2021/01/19 04:55:04;;;;;;;38.40;21.30;;;;;;;;;;4942542;29;20034;-94
2021/01/19 04:57:33;;;;;;;39.92;21.50;;;;;;;;;;4942255;29;20024;-95
2021/01/19 05:00:13;;;;;;;41.35;21.75;;;;;;;;;;4925469;29;20030;-93
2021/01/19 05:05:58;;;;;;;47.72;25.38;;;;;;;;;;4942462;29;20470;-93
2021/01/19 05:08:26;;;;;;;45.13;23.42;;;;;;;;;;4942420;29;20032;-93
2021/01/19 05:11:00;;;;;;;44.78;24.50;;;;;;;;;;4942297;29;20036;-92
2021/01/19 05:13:38;;;;;;;39.40;21.95;;;;;;;;;;4941902;29;20028;-93
2021/01/19 05:19:40;;;;;;;56.13;29.13;;;;;;;;;;4921643;29;20059;-94
2021/01/19 05:22:10;;;;;;;53.10;26.67;;;;;;;;;;4903010;29;20040;-92
2021/01/19 05:24:40;;;;;;;52.03;25.45;;;;;;;;;;4903620;29;20028;-94
2021/01/19 05:27:07;;;;;;;44.15;23.92;;;;;;;;;;4902713;29;20032;-93
2021/01/19 05:29:33;;;;;;;48.90;24.77;;;;;;;;;;4903971;29;20025;-94
2021/01/19 05:31:59;;;;;;;41.58;22.92;;;;;;;;;;4903672;29;20300;-91
2021/01/19 05:34:25;;;;;;;39.05;22.30;;;;;;;;;;4904013;29;20107;-92
2021/01/19 05:36:51;;;;;;;48.17;25.80;;;;;;;;;;4902793;29;20412;-91
2021/01/19 05:39:21;;;;;;;43.90;24.80;;;;;;;;;;4901658;29;20028;-93
2021/01/19 05:41:48;;;;;;;38.58;22.65;;;;;;;;;;4902710;29;20096;-93
2021/01/19 05:44:26;;;;;;;40.20;22.60;;;;;;;;;;4903424;29;20035;-94
2021/01/19 05:46:59;;;;;;;39.35;22.45;;;;;;;;;;4903618;29;20028;-95
2021/01/19 05:49:26;;;;;;;41.17;22.65;;;;;;;;;;4903852;29;20111;-92
2021/01/19 05:52:03;;;;;;;30.70;18.42;;;;;;;;;;4902248;29;20128;-92
2021/01/19 05:54:30;;;;;;;31.92;18.15;;;;;;;;;;4903627;29;20031;-94
2021/01/19 05:57:04;;;;;;;36.50;20.00;;;;;;;;;;4903754;29;20099;-95
2021/01/19 05:59:34;;;;;;;37.88;20.75;;;;;;;;;;4902824;29;20024;-94
2021/01/19 06:02:01;;;;;;;63.88;27.48;;;;;;;;;;4903403;29;20029;-94
2021/01/19 06:04:42;;;;;;;87.95;31.35;;;;;;;;;;4908820;29;20025;-96
2021/01/19 06:07:09;;;;;;;92.05;31.35;;;;;;;;;;4908123;29;20116;-96
2021/01/19 06:09:36;;;;;;;95.45;29.38;;;;;;;;;;4906311;29;20490;-95
2021/01/19 06:12:03;;;;;;;86.93;30.67;;;;;;;;;;4909333;29;20032;-96
2021/01/19 06:14:29;;;;;;;101.95;32.17;;;;;;;;;;4903746;29;20036;-95
2021/01/19 06:17:12;;;;;;;72.97;30.58;;;;;;;;;;4903019;29;20029;-93
2021/01/19 06:19:43;;;;;;;66.13;29.88;;;;;;;;;;4903149;29;20050;-93
2021/01/19 06:22:10;;;;;;;48.08;24.90;;;;;;;;;;4903275;29;20048;-95
2021/01/19 06:24:38;;;;;;;47.97;25.42;;;;;;;;;;4901884;29;20031;-95
2021/01/19 06:27:05;;;;;;;51.78;26.73;;;;;;;;;;4901719;29;20115;-94
2021/01/19 06:29:33;;;;;;;54.42;27.50;;;;;;;;;;4903604;29;20029;-96
2021/01/19 06:32:00;;;;;;;55.50;27.33;;;;;;;;;;4910918;29;20036;-96
2021/01/19 06:39:42;;;;;;;51.45;27.10;;;;;;;;;;5072325;23;20150;-94
2021/01/19 06:42:28;;;;;;;47.75;26.33;;;;;;;;;;4961868;29;20027;-95
2021/01/19 06:45:01;;;;;;;54.58;28.27;;;;;;;;;;4960609;29;20083;-93
2021/01/19 06:50:38;;;;;;;67.05;34.40;;;;;;;;;;4959804;29;20030;-93
2021/01/19 06:53:04;;;;;;;;;;;;;;;;;;4944791;29;20107;-95
2021/01/19 06:55:39;;;;;;;103.07;52.80;;;;;;;;;;4940685;29;19982;-93
2021/01/19 06:58:08;;;;;;;78.22;45.58;;;;;;;;;;4939471;29;20058;-94
2021/01/19 07:00:41;;;;;;;70.25;39.35;;;;;;;;;;4940557;29;20024;-94
2021/01/19 07:03:17;;;;;;;75.03;43.28;;;;;;;;;;4939182;29;20031;-94
2021/01/19 07:05:49;;;;;;;57.42;32.75;;;;;;;;;;4940273;29;20035;-95
2021/01/19 07:08:21;;;;;;;71.45;36.67;;;;;;;;;;4940339;29;20043;-94
2021/01/19 07:10:51;;;;;;;138.38;58.42;;;;;;;;;;4940482;29;20028;-94
2021/01/19 07:13:21;;;;;;;186.50;76.65;;;;;;;;;;4940797;29;20027;-94
2021/01/19 07:16:07;;;;;;;156.57;66.63;;;;;;;;;;4940255;29;20111;-92
2021/01/19 07:18:48;;;;;;;113.57;53.03;;;;;;;;;;4940590;29;20024;-95
2021/01/19 07:21:15;;;;;;;160.02;70.18;;;;;;;;;;4940354;29;20095;-93
2021/01/19 07:23:47;;;;;;;123.20;47.47;;;;;;;;;;4939361;29;20192;-95
2021/01/19 07:26:15;;;;;;;107.80;46.33;;;;;;;;;;4940484;29;20418;-95
2021/01/19 07:28:41;;;;;;;79.95;37.17;;;;;;;;;;4940091;29;20352;-94
2021/01/19 07:31:07;;;;;;;90.05;39.90;;;;;;;;;;4939122;29;20035;-93
2021/01/19 07:41:36;;;;;;;102.80;42.35;;;;;;;;;;5832792;23;20033;-95
2021/01/19 07:44:03;;;;;;;166.52;60.40;;;;;;;;;;4944486;29;20308;-93
2021/01/19 07:46:30;;;;;;;136.05;52.97;;;;;;;;;;4941016;29;20031;-92
2021/01/19 07:49:04;;;;;;;89.20;41.30;;;;;;;;;;4923908;29;20029;-92
2021/01/19 07:51:42;;;;;;;82.70;40.38;;;;;;;;;;4939824;29;20058;-92
2021/01/19 07:54:09;;;;;;;92.68;43.42;;;;;;;;;;4939751;29;20020;-91
2021/01/19 07:56:35;;;;;;;99.78;42.80;;;;;;;;;;4940272;29;20039;-94
2021/01/19 07:59:01;;;;;;;116.65;44.40;;;;;;;;;;4924672;29;20115;-96
2021/01/19 08:01:29;;;;;;;110.20;44.17;;;;;;;;;;4943310;29;20039;-95
2021/01/19 08:07:10;;;;;;;96.20;40.38;;;;;;;;;;4943721;29;20069;-95
2021/01/19 08:09:36;;;;;;;98.30;42.78;;;;;;;;;;4943621;29;20395;-93
2021/01/19 08:12:23;;;;;;;108.38;45.00;;;;;;;;;;4944071;29;20039;-95
2021/01/19 08:14:51;;;;;;;109.13;45.90;;;;;;;;;;4929029;29;20036;-95
2021/01/19 08:17:17;;;;;;;110.47;46.08;;;;;;;;;;4947215;29;20110;-95
2021/01/19 08:19:44;;;;;;;100.55;40.55;;;;;;;;;;4947081;29;20028;-95
2021/01/19 08:22:11;;;;;;;112.80;46.95;;;;;;;;;;4945767;29;20028;-95
2021/01/19 08:24:40;;;;;;;84.07;37.15;;;;;;;;;;4927705;29;20063;-96
2021/01/19 08:27:06;;;;;;;112.47;48.17;;;;;;;;;;4945887;29;20028;-95
2021/01/19 08:29:32;;;;;;;188.73;68.20;;;;;;;;;;4927671;29;20335;-96
2021/01/19 08:32:00;;;;;;;217.80;77.05;;;;;;;;;;4943692;29;20414;-95
2021/01/19 08:34:27;;;;;;;145.45;54.47;;;;;;;;;;4945467;29;20031;-95
2021/01/19 08:36:54;;;;;;;154.75;58.75;;;;;;;;;;4932441;29;20032;-95
2021/01/19 08:39:20;;;;;;;172.57;62.80;;;;;;;;;;4931436;29;20099;-95
2021/01/19 08:41:47;;;;;;;167.70;59.00;;;;;;;;;;4947524;29;20039;-94
2021/01/19 08:44:13;;;;;;;146.68;51.10;;;;;;;;;;4930666;29;20386;-96
2021/01/19 08:46:40;;;;;;;162.75;58.95;;;;;;;;;;4930512;29;20050;-94
2021/01/19 08:49:07;;;;;;;196.40;66.25;;;;;;;;;;4944745;29;20054;-94
2021/01/19 08:51:34;;;;;;;122.85;47.15;;;;;;;;;;4943264;29;20020;-95
2021/01/19 08:54:00;;;;;;;116.80;45.30;;;;;;;;;;4925903;29;20035;-95
2021/01/19 09:19:48;;;;;;;121.45;44.42;;;;;;;;;;5281996;23;20151;-94
2021/01/19 09:22:35;;;;;;;81.53;36.45;;;;;;;;;;4944231;29;20023;-94
2021/01/19 09:25:01;;;;;;;144.40;50.42;;;;;;;;;;4961198;29;20122;-95
2021/01/19 09:27:27;;;;;;;143.18;51.00;;;;;;;;;;4960940;29;20064;-92
2021/01/19 09:30:03;;;;;;;107.57;42.35;;;;;;;;;;4961033;29;20031;-92
2021/01/19 09:35:33;;;;;;;191.90;65.43;;;;;;;;;;4961261;29;20038;-92
2021/01/19 09:37:59;;;;;;;189.52;64.35;;;;;;;;;;4949991;29;20038;-94
2021/01/19 09:40:34;;;;;;;163.20;57.72;;;;;;;;;;4962282;29;20156;-95
2021/01/19 09:43:04;;;;;;;81.60;41.20;;;;;;;;;;5027821;23;20063;-95
2021/01/19 09:45:30;;;;;;;66.43;32.83;;;;;;;;;;4948892;29;20063;-96
2021/01/19 09:51:05;;;;;;;63.25;31.15;;;;;;;;;;4972691;23;20501;-95
2021/01/19 09:53:33;;;;;;;72.53;34.88;;;;;;;;;;4947610;29;20023;-95
2021/01/19 09:56:13;;;;;;;92.07;39.20;;;;;;;;;;4949307;29;20028;-94
2021/01/19 09:58:39;;;;;;;105.78;43.03;;;;;;;;;;4941286;29;20419;-94
2021/01/19 10:01:05;;;;;;;82.25;37.53;;;;;;;;;;4941400;29;20043;-94
2021/01/19 10:03:34;;;;;;;50.05;27.88;;;;;;;;;;4928090;29;20047;-94
2021/01/19 10:06:01;;;;;;;53.10;26.77;;;;;;;;;;4941348;29;20444;-94
2021/01/19 10:08:27;;;;;;;51.97;28.83;;;;;;;;;;4943575;29;20035;-94
2021/01/19 10:10:56;;;;;;;70.03;34.20;;;;;;;;;;4945144;29;20051;-95
2021/01/19 10:16:55;;;;;;;69.88;33.28;;;;;;;;;;4884524;29;20071;-95
2021/01/19 10:22:26;;;;;;;64.20;32.63;;;;;;;;;;4864284;29;20378;-93
2021/01/19 10:24:52;;;;;;;96.03;44.00;;;;;;;;;;4864100;29;20033;-95
2021/01/19 10:27:34;;;;;;;75.35;37.30;;;;;;;;;;4867292;29;20112;-95
2021/01/19 10:30:17;;;;;;;113.32;37.88;;;;;;;;;;5083189;23;20061;-93
2021/01/19 10:32:52;;;;;;;75.03;36.28;;;;;;;;;;4961897;29;20330;-95
2021/01/19 10:35:38;;;;;;;47.25;26.33;;;;;;;;;;4949325;29;20019;-95
2021/01/19 10:38:06;;;;;;;42.25;22.73;;;;;;;;;;4943364;29;20036;-92
2021/01/19 10:40:33;;;;;;;60.35;30.40;;;;;;;;;;4923832;29;20450;-92
2021/01/19 10:43:08;;;;;;;133.95;54.25;;;;;;;;;;4940759;29;20052;-92
2021/01/19 10:45:34;;;;;;;76.20;36.38;;;;;;;;;;4923746;29;20043;-92
2021/01/19 10:48:19;;;;;;;74.93;35.75;;;;;;;;;;4940673;29;20343;-94
2021/01/19 10:50:46;;;;;;;61.47;31.40;;;;;;;;;;4923695;29;20126;-93
2021/01/19 10:53:12;;;;;;;89.25;40.85;;;;;;;;;;4924730;29;20029;-92
2021/01/19 10:55:38;;;;;;;68.15;34.63;;;;;;;;;;4904610;29;20036;-91
2021/01/19 10:58:05;;;;;;;71.47;34.40;;;;;;;;;;4921179;29;20035;-92
2021/01/19 11:00:31;;;;;;;69.13;34.70;;;;;;;;;;4921096;29;20375;-92
2021/01/19 11:02:57;;;;;;;69.32;35.25;;;;;;;;;;4921389;29;20054;-90
2021/01/19 11:05:25;;;;;;;75.38;38.95;;;;;;;;;;4923611;29;20332;-96
2021/01/19 11:07:52;;;;;;;66.80;34.25;;;;;;;;;;4904792;29;20419;-95
2021/01/19 11:10:19;;;;;;;49.20;28.75;;;;;;;;;;4921442;29;20028;-95
2021/01/19 11:12:46;;;;;;;51.63;28.52;;;;;;;;;;4921083;29;20028;-94
2021/01/19 11:15:12;;;;;;;57.58;30.85;;;;;;;;;;4921004;29;20145;-95
2021/01/19 11:17:38;;;;;;;60.83;31.90;;;;;;;;;;4904163;29;20037;-95
2021/01/19 11:20:13;;;;;;;45.75;25.42;;;;;;;;;;4904459;29;20035;-95
2021/01/19 11:22:42;;;;;;;47.65;25.30;;;;;;;;;;4921163;29;20115;-94
2021/01/19 11:25:09;;;;;;;42.15;24.38;;;;;;;;;;4921117;29;20024;-94
2021/01/19 11:27:35;;;;;;;53.42;28.88;;;;;;;;;;4905260;29;20028;-94
2021/01/19 11:30:01;;;;;;;46.65;26.45;;;;;;;;;;4921215;29;20060;-91
2021/01/19 11:32:27;;;;;;;47.20;23.27;;;;;;;;;;4920501;29;20028;-91
2021/01/19 11:37:56;;;;;;;66.22;32.60;;;;;;;;;;4924783;29;20051;-89
2021/01/19 11:40:22;;;;;;;58.22;31.90;;;;;;;;;;4908669;29;20115;-90
2021/01/19 11:42:48;;;;;;;103.70;44.45;;;;;;;;;;4907773;29;20061;-90
2021/01/19 11:45:15;;;;;;;58.00;32.28;;;;;;;;;;4924412;29;20032;-91
2021/01/19 11:53:48;;;;;;;68.00;34.83;;;;;;;;;;4924431;29;20035;-94
2021/01/19 11:56:15;;;;;;;79.10;38.78;;;;;;;;;;4927878;29;20028;-92
2021/01/19 11:58:41;;;;;;;58.47;32.92;;;;;;;;;;4930029;29;20033;-91
2021/01/19 12:01:07;;;;;;;58.33;31.08;;;;;;;;;;4925263;29;20028;-89
2021/01/19 12:03:33;;;;;;;58.05;33.13;;;;;;;;;;4931112;29;20423;-93
2021/01/19 12:06:00;;;;;;;54.80;30.27;;;;;;;;;;4942886;29;20023;-92
2021/01/19 12:08:26;;;;;;;53.90;31.52;;;;;;;;;;4943316;29;20035;-92
2021/01/19 12:10:52;;;;;;;53.22;30.65;;;;;;;;;;4923051;29;20024;-91
2021/01/19 12:13:18;;;;;;;55.33;32.17;;;;;;;;;;4923288;29;20332;-91
2021/01/19 12:15:44;;;;;;;59.90;34.13;;;;;;;;;;4923904;29;20403;-93
2021/01/19 12:18:11;;;;;;;62.47;34.97;;;;;;;;;;4923913;29;20031;-92
2021/01/19 12:20:38;;;;;;;70.15;38.47;;;;;;;;;;4923935;29;20052;-92
2021/01/19 12:23:04;;;;;;;62.35;34.65;;;;;;;;;;4924160;29;20068;-92
2021/01/19 12:25:31;;;;;;;66.35;33.47;;;;;;;;;;4922940;29;20032;-92
2021/01/19 12:27:57;;;;;;;60.28;33.05;;;;;;;;;;4929761;29;20107;-92
2021/01/19 12:30:23;;;;;;;59.28;33.13;;;;;;;;;;4926256;29;20052;-94
2021/01/19 12:32:50;;;;;;;62.65;32.88;;;;;;;;;;4942983;29;20115;-94
2021/01/19 12:38:21;;;;;;;53.08;30.65;;;;;;;;;;4935698;29;20027;-92
2021/01/19 12:40:48;;;;;;;59.30;33.90;;;;;;;;;;4942944;29;20115;-92
2021/01/19 12:43:14;;;;;;;58.40;32.85;;;;;;;;;;4942873;29;20028;-92
2021/01/19 12:45:40;;;;;;;66.55;35.67;;;;;;;;;;4942572;29;20032;-92
2021/01/19 12:48:07;;;;;;;66.28;36.20;;;;;;;;;;4925485;29;20035;-92
2021/01/19 12:50:33;;;;;;;56.47;33.65;;;;;;;;;;4926012;29;20039;-93
2021/01/19 12:53:02;;;;;;;63.90;34.55;;;;;;;;;;4942525;29;20034;-92
2021/01/19 12:55:29;;;;;;;83.68;35.50;;;;;;;;;;4925476;29;20045;-93
2021/01/19 12:57:55;;;;;;;73.53;37.00;;;;;;;;;;4942384;29;20020;-91
2021/01/19 13:00:22;;;;;;;71.43;40.72;;;;;;;;;;4942105;29;20042;-91
2021/01/19 13:02:48;;;;;;;62.65;37.63;;;;;;;;;;4942057;29;20430;-91
2021/01/19 13:08:17;;;;;;;65.70;37.13;;;;;;;;;;4923026;29;20071;-92
2021/01/19 13:10:43;;;;;;;59.55;35.95;;;;;;;;;;4940970;29;20312;-92
2021/01/19 13:13:09;;;;;;;65.50;37.05;;;;;;;;;;4925316;29;20334;-91
2021/01/19 13:15:35;;;;;;;73.20;37.95;;;;;;;;;;4941798;29;20028;-91
2021/01/19 13:18:01;;;;;;;84.70;44.08;;;;;;;;;;4925407;29;20050;-89
2021/01/19 13:20:27;;;;;;;78.95;42.42;;;;;;;;;;4942116;29;20019;-88
2021/01/19 13:22:53;;;;;;;76.93;42.88;;;;;;;;;;4941731;29;20031;-91
2021/01/19 13:25:19;;;;;;;82.47;44.75;;;;;;;;;;4942243;29;20030;-90
2021/01/19 13:27:45;;;;;;;110.47;47.38;;;;;;;;;;4941838;29;20031;-89
2021/01/19 13:30:12;;;;;;;105.53;42.95;;;;;;;;;;4941491;29;20079;-91
2021/01/19 13:32:38;;;;;;;88.38;45.08;;;;;;;;;;4940961;29;20027;-89
2021/01/19 13:35:23;;;;;;;95.65;50.55;;;;;;;;;;4941940;29;20020;-89
2021/01/19 13:37:49;;;;;;;89.43;46.42;;;;;;;;;;4924588;29;20445;-89
2021/01/19 13:40:15;;;;;;;105.55;50.72;;;;;;;;;;4941526;29;20291;-88
2021/01/19 13:42:42;;;;;;;138.43;63.88;;;;;;;;;;4941698;29;20051;-89
2021/01/19 13:45:08;;;;;;;134.23;57.67;;;;;;;;;;4924588;29;20028;-88
2021/01/19 13:47:34;;;;;;;131.02;63.13;;;;;;;;;;4941513;29;20038;-88
2021/01/19 13:53:04;;;;;;;172.52;83.75;;;;;;;;;;4941134;29;20046;-89
2021/01/19 13:55:30;;;;;;;166.95;81.13;;;;;;;;;;4941118;29;20031;-87
2021/01/19 13:57:56;;;;;;;166.77;73.20;;;;;;;;;;4940491;29;20074;-88
2021/01/19 14:00:23;;;;;;;130.65;63.78;;;;;;;;;;4941363;29;20031;-88
2021/01/19 14:02:49;;;;;;;129.57;62.40;;;;;;;;;;4924054;29;20362;-88
2021/01/19 14:08:18;;;;;;;125.55;62.10;;;;;;;;;;4941395;29;20026;-88
2021/01/19 14:10:45;;;;;;;125.82;65.30;;;;;;;;;;4924389;29;20020;-88
2021/01/19 14:13:11;;;;;;;121.20;66.10;;;;;;;;;;4941004;29;20055;-88
2021/01/19 14:15:37;;;;;;;119.47;61.05;;;;;;;;;;4924187;29;20027;-88
2021/01/19 14:18:03;;;;;;;110.72;57.33;;;;;;;;;;4940805;29;20398;-88
2021/01/19 14:20:29;;;;;;;89.78;50.65;;;;;;;;;;4941167;29;20050;-88
2021/01/19 14:22:56;;;;;;;86.63;46.60;;;;;;;;;;4940713;29;20403;-87
2021/01/19 14:25:22;;;;;;;84.72;43.72;;;;;;;;;;4923891;29;20047;-86
2021/01/19 14:27:48;;;;;;;79.93;41.33;;;;;;;;;;4940769;29;20454;-88
2021/01/19 14:30:15;;;;;;;68.72;39.35;;;;;;;;;;4939935;29;20431;-87
2021/01/19 14:32:44;;;;;;;69.07;38.53;;;;;;;;;;4940796;29;20039;-88
2021/01/19 14:38:23;;;;;;;68.90;40.78;;;;;;;;;;4940655;29;20326;-87
2021/01/19 14:40:49;;;;;;;65.47;36.78;;;;;;;;;;4939877;29;20048;-88
2021/01/19 14:43:15;;;;;;;67.90;38.03;;;;;;;;;;4940682;29;20027;-87
2021/01/19 14:45:41;;;;;;;71.47;40.50;;;;;;;;;;4923328;29;20107;-88
2021/01/19 14:48:08;;;;;;;76.47;42.45;;;;;;;;;;4923712;29;20035;-88
2021/01/19 14:50:34;;;;;;;77.20;43.00;;;;;;;;;;4923559;29;20027;-88
2021/01/19 14:53:00;;;;;;;78.95;44.03;;;;;;;;;;4923445;29;20055;-89
2021/01/19 14:55:26;;;;;;;81.60;45.40;;;;;;;;;;4940314;29;20036;-88
2021/01/19 14:57:52;;;;;;;91.63;49.72;;;;;;;;;;4940577;29;20048;-89
2021/01/19 15:00:19;;;;;;;96.65;50.72;;;;;;;;;;4940287;29;20035;-88
2021/01/19 15:02:45;;;;;;;102.60;54.05;;;;;;;;;;4940561;29;20038;-87
2021/01/19 15:08:15;;;;;;;110.65;58.20;;;;;;;;;;4942168;29;20113;-88
2021/01/19 15:10:41;;;;;;;137.63;71.72;;;;;;;;;;4926928;29;20130;-92
2021/01/19 15:13:07;;;;;;;154.77;79.28;;;;;;;;;;4944076;29;20039;-89
2021/01/19 15:15:33;;;;;;;165.85;83.93;;;;;;;;;;4943903;29;20090;-89
2021/01/19 15:17:59;;;;;;;166.80;84.50;;;;;;;;;;4944198;29;20019;-88
2021/01/19 15:20:25;;;;;;;164.98;86.32;;;;;;;;;;4943901;29;20398;-88
2021/01/19 15:22:51;;;;;;;148.27;79.75;;;;;;;;;;4943997;29;20032;-89
2021/01/19 15:25:17;;;;;;;144.77;77.13;;;;;;;;;;4944248;29;20059;-89
2021/01/19 15:27:43;;;;;;;137.93;74.47;;;;;;;;;;4943890;29;20403;-90
2021/01/19 15:30:10;;;;;;;131.45;71.30;;;;;;;;;;4943860;29;20052;-89
2021/01/19 15:32:36;;;;;;;135.80;76.45;;;;;;;;;;4943486;29;20095;-89
2021/01/19 15:41:14;;;;;;;124.60;65.32;;;;;;;;;;4943606;29;20315;-88
2021/01/19 15:43:42;;;;;;;103.63;58.47;;;;;;;;;;4926951;29;20039;-89
2021/01/19 15:46:09;;;;;;;103.20;57.67;;;;;;;;;;4943552;29;20028;-88
2021/01/19 15:48:35;;;;;;;114.25;60.83;;;;;;;;;;4943463;29;20071;-88
2021/01/19 15:51:01;;;;;;;110.15;60.42;;;;;;;;;;4943616;29;20028;-88
2021/01/19 15:53:27;;;;;;;117.68;62.88;;;;;;;;;;4943269;29;20051;-88
2021/01/19 15:55:53;;;;;;;119.82;64.72;;;;;;;;;;4926147;29;20032;-88
2021/01/19 15:58:19;;;;;;;138.35;70.80;;;;;;;;;;4942837;29;20114;-88
2021/01/19 16:00:45;;;;;;;134.35;71.10;;;;;;;;;;4943215;29;20028;-88
2021/01/19 16:03:11;;;;;;;120.32;66.20;;;;;;;;;;4943387;29;20031;-89
2021/01/19 16:05:37;;;;;;;111.00;63.78;;;;;;;;;;4926029;29;20082;-90
2021/01/19 16:08:04;;;;;;;109.60;62.28;;;;;;;;;;4926138;29;20074;-88
2021/01/19 16:10:30;;;;;;;127.82;63.47;;;;;;;;;;4926394;29;20044;-89
2021/01/19 16:12:56;;;;;;;133.70;61.78;;;;;;;;;;4943116;29;20028;-89
2021/01/19 16:15:22;;;;;;;104.28;58.83;;;;;;;;;;4942971;29;20020;-90
2021/01/19 16:17:48;;;;;;;111.55;61.15;;;;;;;;;;4942961;29;20071;-90
2021/01/19 16:20:14;;;;;;;118.13;64.72;;;;;;;;;;4942179;29;20034;-89
2021/01/19 16:22:41;;;;;;;112.32;61.15;;;;;;;;;;4943087;29;20027;-89
2021/01/19 16:25:07;;;;;;;112.85;62.92;;;;;;;;;;4926218;29;20028;-89
2021/01/19 16:27:34;;;;;;;114.60;62.13;;;;;;;;;;4943152;29;20028;-89
2021/01/19 16:30:00;;;;;;;122.43;66.22;;;;;;;;;;4926050;29;20065;-89
2021/01/19 16:32:26;;;;;;;122.05;65.88;;;;;;;;;;4942629;29;20106;-89
2021/01/19 16:34:52;;;;;;;118.68;63.33;;;;;;;;;;4925860;29;20023;-90